sensor_id;sensor_type;location;lat;lon;timestamp;temperature;humidity
5210;DHT22;2624;48.048;11.706;2024-03-17T00:03:01;8.60;99.90
5210;DHT22;2624;48.048;11.706;2024-03-17T00:08:03;8.30;99.90
5210;DHT22;2624;48.048;11.706;2024-03-17T00:13:07;8.40;99.90
5210;DHT22;2624;48.048;11.706;2024-03-17T00:18:09;8.50;99.90
5210;DHT22;2624;48.048;11.706;2024-03-17T00:23:11;8.50;99.90
5210;DHT22;2624;48.048;11.706;2024-03-17T00:28:15;8.40;99.90
5210;DHT22;2624;48.048;11.706;2024-03-17T00:33:17;8.50;99.90
5210;DHT22;2624;48.048;11.706;2024-03-17T00:38:19;8.10;99.90
5210;DHT22;2624;48.048;11.706;2024-03-17T00:43:23;8.40;99.90
5210;DHT22;2624;48.048;11.706;2024-03-17T00:48:24;8.50;99.90
5210;DHT22;2624;48.048;11.706;2024-03-17T00:53:27;8.50;99.90
5210;DHT22;2624;48.048;11.706;2024-03-17T00:58:30;8.30;99.90
5210;DHT22;2624;48.048;11.706;2024-03-17T01:03:32;8.20;99.90
5210;DHT22;2624;48.048;11.706;2024-03-17T01:08:34;8.30;99.90
5210;DHT22;2624;48.048;11.706;2024-03-17T01:13:37;8.40;99.90
5210;DHT22;2624;48.048;11.706;2024-03-17T01:18:42;8.50;99.90
5210;DHT22;2624;48.048;11.706;2024-03-17T01:23:45;8.40;99.90
5210;DHT22;2624;48.048;11.706;2024-03-17T01:28:50;8.50;99.90
5210;DHT22;2624;48.048;11.706;2024-03-17T01:33:52;8.50;99.90
5210;DHT22;2624;48.048;11.706;2024-03-17T01:38:54;8.20;99.90
5210;DHT22;2624;48.048;11.706;2024-03-17T01:43:57;8.40;99.90
5210;DHT22;2624;48.048;11.706;2024-03-17T01:49:00;8.10;99.90
5210;DHT22;2624;48.048;11.706;2024-03-17T01:54:02;7.80;99.90
5210;DHT22;2624;48.048;11.706;2024-03-17T01:59:07;7.60;99.90
5210;DHT22;2624;48.048;11.706;2024-03-17T02:04:09;7.40;99.90
5210;DHT22;2624;48.048;11.706;2024-03-17T02:09:12;7.50;99.90
5210;DHT22;2624;48.048;11.706;2024-03-17T02:14:15;7.60;99.90
5210;DHT22;2624;48.048;11.706;2024-03-17T02:19:18;7.50;99.90
5210;DHT22;2624;48.048;11.706;2024-03-17T02:24:21;7.60;99.90
5210;DHT22;2624;48.048;11.706;2024-03-17T02:29:23;7.90;99.90
5210;DHT22;2624;48.048;11.706;2024-03-17T02:34:25;8.20;99.90
5210;DHT22;2624;48.048;11.706;2024-03-17T02:39:28;8.10;99.90
5210;DHT22;2624;48.048;11.706;2024-03-17T02:44:35;8.10;99.90
5210;DHT22;2624;48.048;11.706;2024-03-17T02:49:37;7.90;99.90
5210;DHT22;2624;48.048;11.706;2024-03-17T02:54:41;7.50;99.90
5210;DHT22;2624;48.048;11.706;2024-03-17T02:59:43;7.40;99.90
5210;DHT22;2624;48.048;11.706;2024-03-17T03:04:45;7.70;99.90
5210;DHT22;2624;48.048;11.706;2024-03-17T03:09:48;7.30;99.90
5210;DHT22;2624;48.048;11.706;2024-03-17T03:14:52;7.20;99.90
5210;DHT22;2624;48.048;11.706;2024-03-17T03:19:54;7.20;99.90
5210;DHT22;2624;48.048;11.706;2024-03-17T03:24:57;7.10;99.90
5210;DHT22;2624;48.048;11.706;2024-03-17T03:29:59;7.30;99.90
5210;DHT22;2624;48.048;11.706;2024-03-17T03:35:01;7.60;99.90
5210;DHT22;2624;48.048;11.706;2024-03-17T03:40:07;7.10;99.90
5210;DHT22;2624;48.048;11.706;2024-03-17T03:45:16;7.50;99.90
5210;DHT22;2624;48.048;11.706;2024-03-17T03:50:20;7.50;99.90
5210;DHT22;2624;48.048;11.706;2024-03-17T03:55:24;7.40;99.90
5210;DHT22;2624;48.048;11.706;2024-03-17T04:00:26;7.30;99.90
5210;DHT22;2624;48.048;11.706;2024-03-17T04:05:32;7.10;99.90
5210;DHT22;2624;48.048;11.706;2024-03-17T04:10:36;7.10;99.90
5210;DHT22;2624;48.048;11.706;2024-03-17T04:15:38;7.40;99.90
5210;DHT22;2624;48.048;11.706;2024-03-17T04:20:40;7.10;99.90
5210;DHT22;2624;48.048;11.706;2024-03-17T04:25:43;7.20;99.90
5210;DHT22;2624;48.048;11.706;2024-03-17T04:30:45;7.60;99.90
5210;DHT22;2624;48.048;11.706;2024-03-17T04:35:48;7.50;99.90
5210;DHT22;2624;48.048;11.706;2024-03-17T04:40:51;7.60;99.90
5210;DHT22;2624;48.048;11.706;2024-03-17T04:46:00;7.60;99.90
5210;DHT22;2624;48.048;11.706;2024-03-17T04:51:04;7.50;99.90
5210;DHT22;2624;48.048;11.706;2024-03-17T04:56:08;7.50;99.90
5210;DHT22;2624;48.048;11.706;2024-03-17T05:01:10;7.20;99.90
5210;DHT22;2624;48.048;11.706;2024-03-17T05:06:13;7.50;99.90
5210;DHT22;2624;48.048;11.706;2024-03-17T05:11:16;7.60;99.90
5210;DHT22;2624;48.048;11.706;2024-03-17T05:16:19;7.60;99.90
5210;DHT22;2624;48.048;11.706;2024-03-17T05:21:23;7.60;99.90
5210;DHT22;2624;48.048;11.706;2024-03-17T05:26:28;7.50;99.90
5210;DHT22;2624;48.048;11.706;2024-03-17T05:31:31;7.00;99.90
5210;DHT22;2624;48.048;11.706;2024-03-17T05:36:33;7.30;99.90
5210;DHT22;2624;48.048;11.706;2024-03-17T05:41:37;6.90;99.90
5210;DHT22;2624;48.048;11.706;2024-03-17T05:46:39;6.90;99.90
5210;DHT22;2624;48.048;11.706;2024-03-17T05:51:41;7.00;99.90
5210;DHT22;2624;48.048;11.706;2024-03-17T05:56:44;6.80;99.90
5210;DHT22;2624;48.048;11.706;2024-03-17T06:01:46;6.90;99.90
5210;DHT22;2624;48.048;11.706;2024-03-17T06:06:48;7.10;99.90
5210;DHT22;2624;48.048;11.706;2024-03-17T06:11:51;7.30;99.90
5210;DHT22;2624;48.048;11.706;2024-03-17T06:16:53;7.30;99.90
5210;DHT22;2624;48.048;11.706;2024-03-17T06:21:55;6.90;99.90
5210;DHT22;2624;48.048;11.706;2024-03-17T06:26:59;7.00;99.90
5210;DHT22;2624;48.048;11.706;2024-03-17T06:32:01;7.00;99.90
5210;DHT22;2624;48.048;11.706;2024-03-17T06:37:04;6.80;99.90
5210;DHT22;2624;48.048;11.706;2024-03-17T06:42:07;6.90;99.90
5210;DHT22;2624;48.048;11.706;2024-03-17T06:47:09;6.90;99.90
5210;DHT22;2624;48.048;11.706;2024-03-17T06:52:11;7.10;99.90
5210;DHT22;2624;48.048;11.706;2024-03-17T06:57:14;7.30;99.90
5210;DHT22;2624;48.048;11.706;2024-03-17T07:02:16;7.40;99.90
5210;DHT22;2624;48.048;11.706;2024-03-17T07:07:20;7.60;99.90
5210;DHT22;2624;48.048;11.706;2024-03-17T07:12:23;7.80;99.90
5210;DHT22;2624;48.048;11.706;2024-03-17T07:17:25;7.80;99.90
5210;DHT22;2624;48.048;11.706;2024-03-17T07:22:27;7.80;99.90
5210;DHT22;2624;48.048;11.706;2024-03-17T07:27:31;8.00;99.90
5210;DHT22;2624;48.048;11.706;2024-03-17T07:32:33;8.20;99.90
5210;DHT22;2624;48.048;11.706;2024-03-17T07:37:35;8.40;99.90
5210;DHT22;2624;48.048;11.706;2024-03-17T07:42:38;8.60;99.90
5210;DHT22;2624;48.048;11.706;2024-03-17T07:47:40;8.70;99.90
5210;DHT22;2624;48.048;11.706;2024-03-17T07:52:42;8.80;99.90
5210;DHT22;2624;48.048;11.706;2024-03-17T07:57:45;9.00;99.90
5210;DHT22;2624;48.048;11.706;2024-03-17T08:02:47;9.10;99.90
5210;DHT22;2624;48.048;11.706;2024-03-17T08:07:49;9.40;99.90
5210;DHT22;2624;48.048;11.706;2024-03-17T08:12:52;9.30;99.90
5210;DHT22;2624;48.048;11.706;2024-03-17T08:17:54;9.60;99.90
5210;DHT22;2624;48.048;11.706;2024-03-17T08:22:56;9.90;99.90
5210;DHT22;2624;48.048;11.706;2024-03-17T08:27:59;9.90;99.90
5210;DHT22;2624;48.048;11.706;2024-03-17T08:33:01;10.20;99.90
5210;DHT22;2624;48.048;11.706;2024-03-17T08:38:03;9.90;99.90
5210;DHT22;2624;48.048;11.706;2024-03-17T08:43:07;10.30;99.90
5210;DHT22;2624;48.048;11.706;2024-03-17T08:48:09;10.60;99.90
5210;DHT22;2624;48.048;11.706;2024-03-17T08:53:12;10.20;99.90
5210;DHT22;2624;48.048;11.706;2024-03-17T08:58:15;9.90;99.90
5210;DHT22;2624;48.048;11.706;2024-03-17T09:03:18;9.80;99.90
5210;DHT22;2624;48.048;11.706;2024-03-17T09:08:21;9.70;99.90
5210;DHT22;2624;48.048;11.706;2024-03-17T09:13:26;9.90;99.90
5210;DHT22;2624;48.048;11.706;2024-03-17T09:18:28;9.70;99.90
5210;DHT22;2624;48.048;11.706;2024-03-17T09:23:31;9.80;99.90
5210;DHT22;2624;48.048;11.706;2024-03-17T09:28:36;10.50;99.90
5210;DHT22;2624;48.048;11.706;2024-03-17T09:33:38;10.40;99.90
5210;DHT22;2624;48.048;11.706;2024-03-17T09:38:40;10.30;99.90
5210;DHT22;2624;48.048;11.706;2024-03-17T09:43:43;10.40;99.90
5210;DHT22;2624;48.048;11.706;2024-03-17T09:48:46;10.10;99.90
5210;DHT22;2624;48.048;11.706;2024-03-17T09:53:49;10.10;99.90
5210;DHT22;2624;48.048;11.706;2024-03-17T09:58:52;10.20;99.90
5210;DHT22;2624;48.048;11.706;2024-03-17T10:03:54;11.20;99.90
5210;DHT22;2624;48.048;11.706;2024-03-17T10:08:58;11.70;99.90
5210;DHT22;2624;48.048;11.706;2024-03-17T10:14:04;11.50;99.90
5210;DHT22;2624;48.048;11.706;2024-03-17T10:19:07;11.60;99.90
5210;DHT22;2624;48.048;11.706;2024-03-17T10:24:12;11.00;99.90
5210;DHT22;2624;48.048;11.706;2024-03-17T10:29:23;11.80;99.90
5210;DHT22;2624;48.048;11.706;2024-03-17T10:34:26;11.30;99.90
5210;DHT22;2624;48.048;11.706;2024-03-17T10:39:29;10.70;99.90
5210;DHT22;2624;48.048;11.706;2024-03-17T10:44:35;10.90;99.90
5210;DHT22;2624;48.048;11.706;2024-03-17T10:49:38;12.10;99.90
5210;DHT22;2624;48.048;11.706;2024-03-17T10:54:40;12.30;99.90
5210;DHT22;2624;48.048;11.706;2024-03-17T10:59:50;12.70;99.90
5210;DHT22;2624;48.048;11.706;2024-03-17T11:04:54;12.90;99.90
5210;DHT22;2624;48.048;11.706;2024-03-17T11:09:58;12.70;99.90
5210;DHT22;2624;48.048;11.706;2024-03-17T11:15:39;12.50;99.90
5210;DHT22;2624;48.048;11.706;2024-03-17T11:20:43;13.00;99.90
5210;DHT22;2624;48.048;11.706;2024-03-17T11:25:52;12.10;99.90
5210;DHT22;2624;48.048;11.706;2024-03-17T11:30:55;12.90;99.90
5210;DHT22;2624;48.048;11.706;2024-03-17T11:36:32;13.10;99.90
5210;DHT22;2624;48.048;11.706;2024-03-17T11:41:38;12.70;99.90
5210;DHT22;2624;48.048;11.706;2024-03-17T11:46:42;12.50;99.90
5210;DHT22;2624;48.048;11.706;2024-03-17T11:51:45;12.60;99.90
5210;DHT22;2624;48.048;11.706;2024-03-17T11:56:49;12.40;99.90
5210;DHT22;2624;48.048;11.706;2024-03-17T12:01:52;12.30;99.90
5210;DHT22;2624;48.048;11.706;2024-03-17T12:06:55;12.90;99.90
5210;DHT22;2624;48.048;11.706;2024-03-17T12:11:59;13.00;99.90
5210;DHT22;2624;48.048;11.706;2024-03-17T12:17:03;12.70;99.90
5210;DHT22;2624;48.048;11.706;2024-03-17T12:22:06;12.50;99.90
5210;DHT22;2624;48.048;11.706;2024-03-17T12:27:08;12.50;99.90
5210;DHT22;2624;48.048;11.706;2024-03-17T12:32:21;12.60;99.90
5210;DHT22;2624;48.048;11.706;2024-03-17T12:37:24;12.60;99.90
5210;DHT22;2624;48.048;11.706;2024-03-17T12:42:29;12.80;99.90
5210;DHT22;2624;48.048;11.706;2024-03-17T12:47:33;12.80;99.90
5210;DHT22;2624;48.048;11.706;2024-03-17T12:52:36;12.80;99.90
5210;DHT22;2624;48.048;11.706;2024-03-17T12:57:38;13.20;99.90
5210;DHT22;2624;48.048;11.706;2024-03-17T13:02:59;13.10;99.90
5210;DHT22;2624;48.048;11.706;2024-03-17T13:08:01;12.90;99.90
5210;DHT22;2624;48.048;11.706;2024-03-17T13:13:04;12.80;99.90
5210;DHT22;2624;48.048;11.706;2024-03-17T13:18:09;12.80;99.90
5210;DHT22;2624;48.048;11.706;2024-03-17T13:23:11;12.80;99.90
5210;DHT22;2624;48.048;11.706;2024-03-17T13:28:14;12.90;99.90
5210;DHT22;2624;48.048;11.706;2024-03-17T13:33:17;12.70;99.90
5210;DHT22;2624;48.048;11.706;2024-03-17T13:38:19;12.70;99.90
5210;DHT22;2624;48.048;11.706;2024-03-17T13:43:21;12.70;99.90
5210;DHT22;2624;48.048;11.706;2024-03-17T13:48:24;12.60;99.90
5210;DHT22;2624;48.048;11.706;2024-03-17T13:53:26;12.80;99.90
5210;DHT22;2624;48.048;11.706;2024-03-17T13:58:28;12.70;99.90
5210;DHT22;2624;48.048;11.706;2024-03-17T14:03:31;12.80;99.90
5210;DHT22;2624;48.048;11.706;2024-03-17T14:08:33;12.80;99.90
5210;DHT22;2624;48.048;11.706;2024-03-17T14:13:35;12.80;99.90
5210;DHT22;2624;48.048;11.706;2024-03-17T14:18:38;12.80;99.90
5210;DHT22;2624;48.048;11.706;2024-03-17T14:23:40;12.80;99.90
5210;DHT22;2624;48.048;11.706;2024-03-17T14:28:44;12.80;99.90
5210;DHT22;2624;48.048;11.706;2024-03-17T14:33:48;12.80;99.90
5210;DHT22;2624;48.048;11.706;2024-03-17T14:38:50;12.90;99.90
5210;DHT22;2624;48.048;11.706;2024-03-17T14:43:52;12.90;99.90
5210;DHT22;2624;48.048;11.706;2024-03-17T14:48:55;12.90;99.90
5210;DHT22;2624;48.048;11.706;2024-03-17T14:53:57;12.80;99.90
5210;DHT22;2624;48.048;11.706;2024-03-17T14:59:01;12.90;99.90
5210;DHT22;2624;48.048;11.706;2024-03-17T15:04:04;12.80;99.90
5210;DHT22;2624;48.048;11.706;2024-03-17T15:09:06;12.80;99.90
5210;DHT22;2624;48.048;11.706;2024-03-17T15:14:08;12.70;99.90
5210;DHT22;2624;48.048;11.706;2024-03-17T15:19:13;12.70;99.90
5210;DHT22;2624;48.048;11.706;2024-03-17T15:24:14;12.80;99.90
5210;DHT22;2624;48.048;11.706;2024-03-17T15:29:16;12.80;99.90
5210;DHT22;2624;48.048;11.706;2024-03-17T15:34:20;12.70;99.90
5210;DHT22;2624;48.048;11.706;2024-03-17T15:39:22;12.80;99.90
5210;DHT22;2624;48.048;11.706;2024-03-17T15:44:24;12.70;99.90
5210;DHT22;2624;48.048;11.706;2024-03-17T15:49:27;12.70;99.90
5210;DHT22;2624;48.048;11.706;2024-03-17T15:54:29;12.70;99.90
5210;DHT22;2624;48.048;11.706;2024-03-17T15:59:31;12.70;99.90
5210;DHT22;2624;48.048;11.706;2024-03-17T16:04:36;12.70;99.90
5210;DHT22;2624;48.048;11.706;2024-03-17T16:09:38;12.70;99.90
5210;DHT22;2624;48.048;11.706;2024-03-17T16:14:42;12.70;99.90
5210;DHT22;2624;48.048;11.706;2024-03-17T16:19:45;12.70;99.90
5210;DHT22;2624;48.048;11.706;2024-03-17T16:24:48;12.80;99.90
5210;DHT22;2624;48.048;11.706;2024-03-17T16:29:50;12.80;99.90
5210;DHT22;2624;48.048;11.706;2024-03-17T16:34:54;12.70;99.90
5210;DHT22;2624;48.048;11.706;2024-03-17T16:39:56;12.70;99.90
5210;DHT22;2624;48.048;11.706;2024-03-17T16:45:04;12.70;99.90
5210;DHT22;2624;48.048;11.706;2024-03-17T16:50:09;12.60;99.90
5210;DHT22;2624;48.048;11.706;2024-03-17T16:55:12;12.60;99.90
5210;DHT22;2624;48.048;11.706;2024-03-17T17:00:16;12.60;99.90
5210;DHT22;2624;48.048;11.706;2024-03-17T17:05:20;12.60;99.90
5210;DHT22;2624;48.048;11.706;2024-03-17T17:10:22;12.60;99.90
5210;DHT22;2624;48.048;11.706;2024-03-17T17:15:24;12.50;99.90
5210;DHT22;2624;48.048;11.706;2024-03-17T17:20:27;12.30;99.90
5210;DHT22;2624;48.048;11.706;2024-03-17T17:25:34;12.30;99.90
5210;DHT22;2624;48.048;11.706;2024-03-17T17:30:36;12.30;99.90
5210;DHT22;2624;48.048;11.706;2024-03-17T17:35:39;12.40;99.90
5210;DHT22;2624;48.048;11.706;2024-03-17T17:40:41;12.30;99.90
5210;DHT22;2624;48.048;11.706;2024-03-17T17:45:44;12.30;99.90
5210;DHT22;2624;48.048;11.706;2024-03-17T17:50:47;12.20;99.90
5210;DHT22;2624;48.048;11.706;2024-03-17T17:55:49;12.30;99.90
5210;DHT22;2624;48.048;11.706;2024-03-17T18:00:56;12.30;99.90
5210;DHT22;2624;48.048;11.706;2024-03-17T18:06:00;12.30;99.90
5210;DHT22;2624;48.048;11.706;2024-03-17T18:11:02;12.10;99.90
5210;DHT22;2624;48.048;11.706;2024-03-17T18:16:05;12.20;99.90
5210;DHT22;2624;48.048;11.706;2024-03-17T18:21:10;12.20;99.90
5210;DHT22;2624;48.048;11.706;2024-03-17T18:26:13;12.00;99.90
5210;DHT22;2624;48.048;11.706;2024-03-17T18:31:15;12.10;99.90
5210;DHT22;2624;48.048;11.706;2024-03-17T18:36:18;12.20;99.90
5210;DHT22;2624;48.048;11.706;2024-03-17T18:41:20;12.10;99.90
5210;DHT22;2624;48.048;11.706;2024-03-17T18:46:22;12.10;99.90
5210;DHT22;2624;48.048;11.706;2024-03-17T18:51:25;12.10;99.90
5210;DHT22;2624;48.048;11.706;2024-03-17T18:56:28;12.00;99.90
5210;DHT22;2624;48.048;11.706;2024-03-17T19:01:30;12.00;99.90
5210;DHT22;2624;48.048;11.706;2024-03-17T19:06:33;11.90;99.90
5210;DHT22;2624;48.048;11.706;2024-03-17T19:11:35;11.90;99.90
5210;DHT22;2624;48.048;11.706;2024-03-17T19:16:38;11.80;99.90
5210;DHT22;2624;48.048;11.706;2024-03-17T19:21:41;11.70;99.90
5210;DHT22;2624;48.048;11.706;2024-03-17T19:26:48;11.60;99.90
5210;DHT22;2624;48.048;11.706;2024-03-17T19:31:51;11.10;99.90
5210;DHT22;2624;48.048;11.706;2024-03-17T19:36:54;11.00;99.90
5210;DHT22;2624;48.048;11.706;2024-03-17T19:41:56;11.00;99.90
5210;DHT22;2624;48.048;11.706;2024-03-17T19:47:00;11.30;99.90
5210;DHT22;2624;48.048;11.706;2024-03-17T19:52:04;11.10;99.90
5210;DHT22;2624;48.048;11.706;2024-03-17T19:57:06;10.70;99.90
5210;DHT22;2624;48.048;11.706;2024-03-17T20:02:11;10.70;99.90
5210;DHT22;2624;48.048;11.706;2024-03-17T20:07:15;11.20;99.90
5210;DHT22;2624;48.048;11.706;2024-03-17T20:12:16;11.30;99.90
5210;DHT22;2624;48.048;11.706;2024-03-17T20:17:18;10.70;99.90
5210;DHT22;2624;48.048;11.706;2024-03-17T20:22:22;10.80;99.90
5210;DHT22;2624;48.048;11.706;2024-03-17T20:27:25;11.10;99.90
5210;DHT22;2624;48.048;11.706;2024-03-17T20:32:27;11.10;99.90
5210;DHT22;2624;48.048;11.706;2024-03-17T20:37:30;10.90;99.90
5210;DHT22;2624;48.048;11.706;2024-03-17T20:42:32;10.90;99.90
5210;DHT22;2624;48.048;11.706;2024-03-17T20:47:34;10.90;99.90
5210;DHT22;2624;48.048;11.706;2024-03-17T20:52:37;10.80;99.90
5210;DHT22;2624;48.048;11.706;2024-03-17T20:57:39;10.80;99.90
5210;DHT22;2624;48.048;11.706;2024-03-17T21:02:41;10.70;99.90
5210;DHT22;2624;48.048;11.706;2024-03-17T21:07:44;10.60;99.90
5210;DHT22;2624;48.048;11.706;2024-03-17T21:12:47;10.60;99.90
5210;DHT22;2624;48.048;11.706;2024-03-17T21:17:50;10.90;99.90
5210;DHT22;2624;48.048;11.706;2024-03-17T21:22:54;10.50;99.90
5210;DHT22;2624;48.048;11.706;2024-03-17T21:27:59;10.80;99.90
5210;DHT22;2624;48.048;11.706;2024-03-17T21:33:03;10.50;99.90
5210;DHT22;2624;48.048;11.706;2024-03-17T21:38:06;10.50;99.90
5210;DHT22;2624;48.048;11.706;2024-03-17T21:43:08;10.40;99.90
5210;DHT22;2624;48.048;11.706;2024-03-17T21:48:11;10.30;99.90
5210;DHT22;2624;48.048;11.706;2024-03-17T21:53:14;10.20;99.90
5210;DHT22;2624;48.048;11.706;2024-03-17T21:58:16;10.10;99.90
5210;DHT22;2624;48.048;11.706;2024-03-17T22:03:18;10.10;99.90
5210;DHT22;2624;48.048;11.706;2024-03-17T22:08:22;10.00;99.90
5210;DHT22;2624;48.048;11.706;2024-03-17T22:13:25;10.10;99.90
5210;DHT22;2624;48.048;11.706;2024-03-17T22:18:28;10.20;99.90
5210;DHT22;2624;48.048;11.706;2024-03-17T22:23:31;10.40;99.90
5210;DHT22;2624;48.048;11.706;2024-03-17T22:28:33;10.20;99.90
5210;DHT22;2624;48.048;11.706;2024-03-17T22:33:35;10.30;99.90
5210;DHT22;2624;48.048;11.706;2024-03-17T22:38:39;10.40;99.90
5210;DHT22;2624;48.048;11.706;2024-03-17T22:43:42;10.20;99.90
5210;DHT22;2624;48.048;11.706;2024-03-17T22:48:43;10.10;99.90
5210;DHT22;2624;48.048;11.706;2024-03-17T22:53:48;10.40;99.90
5210;DHT22;2624;48.048;11.706;2024-03-17T22:58:50;10.30;99.90
5210;DHT22;2624;48.048;11.706;2024-03-17T23:03:52;10.40;99.90
5210;DHT22;2624;48.048;11.706;2024-03-17T23:08:56;10.00;99.90
5210;DHT22;2624;48.048;11.706;2024-03-17T23:13:58;9.90;99.90
5210;DHT22;2624;48.048;11.706;2024-03-17T23:18:59;10.10;99.90
5210;DHT22;2624;48.048;11.706;2024-03-17T23:24:04;10.00;99.90
5210;DHT22;2624;48.048;11.706;2024-03-17T23:29:06;10.00;99.90
5210;DHT22;2624;48.048;11.706;2024-03-17T23:34:08;10.00;99.90
5210;DHT22;2624;48.048;11.706;2024-03-17T23:39:11;10.00;99.90
5210;DHT22;2624;48.048;11.706;2024-03-17T23:44:13;10.00;99.90
5210;DHT22;2624;48.048;11.706;2024-03-17T23:49:16;10.20;99.90
5210;DHT22;2624;48.048;11.706;2024-03-17T23:54:19;10.10;99.90
5210;DHT22;2624;48.048;11.706;2024-03-17T23:59:21;9.90;99.90
